Time;durP1;ratioP1;P1;durP2;ratioP2;P2;SDS_P1;SDS_P2;PMS_P1;PMS_P2;Temp;Humidity;BMP_temperature;BMP_pressure;BME280_temperature;BME280_humidity;BME280_pressure;Samples;Min_cycle;Max_cycle;Signal;HPM_P1;HPM_P2
2022/01/12 00:00:07;;;;;;;33.97;14.85;;;;;;;1.96;100.00;102629.09;5187529;28;20450;-79
2022/01/12 00:02:38;;;;;;;30.67;14.57;;;;;;;1.91;100.00;102631.53;5187173;28;20044;-79
2022/01/12 00:05:08;;;;;;;33.38;14.88;;;;;;;1.98;100.00;102640.34;5210482;28;20035;-79
2022/01/12 00:07:39;;;;;;;32.22;14.80;;;;;;;2.01;100.00;102632.69;5197211;28;20037;-80
2022/01/12 00:10:09;;;;;;;35.97;15.10;;;;;;;2.06;100.00;102642.31;5200149;28;20026;-79
2022/01/12 00:12:39;;;;;;;33.95;14.68;;;;;;;1.96;100.00;102647.16;5195727;28;20029;-80
2022/01/12 00:15:10;;;;;;;30.42;14.43;;;;;;;2.06;100.00;102646.59;5200750;28;20032;-80
2022/01/12 00:17:41;;;;;;;32.03;14.40;;;;;;;1.95;100.00;102642.78;5203899;28;20033;-80
2022/01/12 00:20:12;;;;;;;35.45;15.23;;;;;;;1.99;100.00;102640.38;5204374;28;20021;-80
2022/01/12 00:22:43;;;;;;;32.40;14.43;;;;;;;2.13;100.00;102644.25;5202688;28;20074;-80
2022/01/12 00:33:26;;;;;;;28.20;13.55;;;;;;;2.06;100.00;102641.44;5202341;28;20111;-80
2022/01/12 00:35:57;;;;;;;31.52;14.35;;;;;;;1.98;100.00;102654.09;5198495;28;20029;-80
2022/01/12 00:38:29;;;;;;;28.88;13.23;;;;;;;2.07;100.00;102650.91;5195464;28;20025;-80
2022/01/12 00:41:00;;;;;;;32.78;14.23;;;;;;;2.02;100.00;102639.59;5193509;28;20018;-79
2022/01/12 00:43:33;;;;;;;33.05;14.45;;;;;;;2.00;100.00;102651.56;5192875;28;20017;-80
2022/01/12 00:46:03;;;;;;;32.47;14.48;;;;;;;1.98;100.00;102648.06;5201341;28;20542;-80
2022/01/12 00:48:37;;;;;;;32.60;14.45;;;;;;;2.06;100.00;102651.75;5199641;28;20108;-80
2022/01/12 00:51:10;;;;;;;28.20;14.40;;;;;;;2.03;100.00;102641.34;5199778;28;20056;-80
2022/01/12 00:53:41;;;;;;;27.30;13.15;;;;;;;1.93;100.00;102644.44;5198452;28;20029;-80
2022/01/12 00:56:11;;;;;;;28.90;13.77;;;;;;;1.84;100.00;102639.88;5201513;28;20546;-80
2022/01/12 00:58:41;;;;;;;28.80;13.27;;;;;;;1.91;100.00;102633.22;5204430;28;20363;-80
2022/01/12 01:01:12;;;;;;;31.27;13.20;;;;;;;1.99;100.00;102635.22;5206614;28;20411;-80
2022/01/12 01:03:42;;;;;;;32.00;14.02;;;;;;;1.92;100.00;102629.81;5206498;28;20495;-80
2022/01/12 01:06:13;;;;;;;27.63;13.32;;;;;;;1.90;100.00;102629.78;5202337;28;20057;-80
2022/01/12 01:08:44;;;;;;;27.75;13.05;;;;;;;1.94;100.00;102626.47;5199271;28;20468;-80
2022/01/12 01:11:14;;;;;;;27.92;13.18;;;;;;;1.96;100.00;102634.25;5200012;28;20427;-80
2022/01/12 01:14:13;;;;;;;31.58;14.07;;;;;;;1.91;100.00;102623.78;5193418;28;20100;-80
2022/01/12 01:17:07;;;;;;;25.55;12.75;;;;;;;1.99;100.00;102624.03;5209396;28;20036;-80
2022/01/12 01:28:01;;;;;;;28.15;12.68;;;;;;;1.98;100.00;102627.44;5207252;28;20049;-80
2022/01/12 01:30:35;;;;;;;30.92;13.93;;;;;;;2.01;100.00;102625.81;5209425;28;20018;-80
2022/01/12 01:33:09;;;;;;;28.70;13.43;;;;;;;2.02;100.00;102624.13;5209326;28;20033;-80
2022/01/12 01:35:43;;;;;;;25.38;12.30;;;;;;;2.04;100.00;102622.47;5206842;28;20040;-80
2022/01/12 01:38:13;;;;;;;27.50;13.63;;;;;;;2.07;100.00;102627.72;5194256;28;20021;-80
2022/01/12 01:40:43;;;;;;;28.60;13.35;;;;;;;1.98;100.00;102627.44;5204788;28;20047;-80
2022/01/12 01:54:32;;;;;;;26.20;12.70;;;;;;;1.87;100.00;102646.84;5210085;28;20037;-80
2022/01/12 01:57:02;;;;;;;23.63;12.27;;;;;;;1.76;100.00;102650.75;5208766;28;20252;-79
2022/01/12 01:59:32;;;;;;;28.63;13.30;;;;;;;1.72;100.00;102654.06;5203032;28;20033;-80
2022/01/12 02:02:03;;;;;;;28.45;13.45;;;;;;;1.74;100.00;102657.56;5204906;28;20069;-80
2022/01/12 02:04:33;;;;;;;28.48;13.07;;;;;;;1.63;100.00;102655.47;5204343;28;20036;-80
2022/01/12 02:07:04;;;;;;;27.33;13.35;;;;;;;1.74;100.00;102657.56;5193767;28;20106;-80
2022/01/12 02:09:37;;;;;;;27.52;13.57;;;;;;;1.76;100.00;102650.75;5195826;28;20025;-80
2022/01/12 02:12:08;;;;;;;31.58;14.07;;;;;;;1.84;100.00;102649.31;5195466;28;20032;-80
2022/01/12 02:14:39;;;;;;;27.77;13.35;;;;;;;1.83;100.00;102645.00;5197775;28;20128;-80
2022/01/12 02:17:17;;;;;;;28.80;13.05;;;;;;;1.75;100.00;102656.72;5205222;28;20025;-80
2022/01/12 02:36:30;;;;;;;25.15;11.23;;;;;;;1.71;100.00;102662.63;5197938;28;20206;-82
2022/01/12 02:41:50;;;;;;;23.55;11.18;;;;;;;1.77;100.00;102667.97;5193427;28;20080;-82
2022/01/12 02:55:37;;;;;;;27.58;12.60;;;;;;;1.75;100.00;102668.75;5203733;28;20040;-82
2022/01/12 02:58:07;;;;;;;27.08;12.00;;;;;;;1.96;100.00;102678.09;5200315;28;20459;-82
2022/01/12 03:03:32;;;;;;;23.17;11.95;;;;;;;2.02;100.00;102670.53;5173905;28;20033;-82
2022/01/12 03:06:06;;;;;;;26.27;12.43;;;;;;;1.98;100.00;102669.56;5197708;28;20029;-82
2022/01/12 03:08:37;;;;;;;26.40;11.77;;;;;;;2.03;100.00;102660.25;5192570;28;20028;-82
2022/01/12 03:11:09;;;;;;;23.05;11.73;;;;;;;1.96;100.00;102660.03;5201018;28;20025;-82
2022/01/12 03:13:40;;;;;;;23.35;12.15;;;;;;;2.02;100.00;102667.97;5186663;28;20025;-82
2022/01/12 03:16:16;;;;;;;24.85;12.35;;;;;;;1.92;100.00;102671.06;5203718;28;20029;-82
2022/01/12 03:18:49;;;;;;;24.80;12.02;;;;;;;1.92;100.00;102659.06;5203148;28;20033;-82
2022/01/12 03:21:23;;;;;;;25.50;12.50;;;;;;;2.04;100.00;102658.56;5205164;28;20560;-82
2022/01/12 03:23:54;;;;;;;21.92;11.40;;;;;;;2.17;100.00;102661.56;5203750;28;20491;-82
2022/01/12 03:26:27;;;;;;;23.25;11.25;;;;;;;2.11;100.00;102661.41;5203090;28;20075;-82
2022/01/12 03:28:58;;;;;;;22.83;11.82;;;;;;;2.00;100.00;102652.44;5203788;28;20044;-82
2022/01/12 03:31:32;;;;;;;22.80;10.68;;;;;;;1.94;100.00;102656.50;5203716;28;20055;-82
2022/01/12 03:37:05;;;;;;;22.75;10.80;;;;;;;1.81;100.00;102654.38;5198567;28;20049;-82
2022/01/12 03:39:33;;;;;;;18.98;9.77;;;;;;;1.87;100.00;102649.41;5196389;28;20029;-82
2022/01/12 03:42:04;;;;;;;24.15;11.52;;;;;;;2.06;100.00;102654.31;5194493;28;20025;-82
2022/01/12 03:44:35;;;;;;;24.52;10.80;;;;;;;2.04;100.00;102638.81;5195000;28;20120;-82
2022/01/12 03:47:05;;;;;;;21.67;11.00;;;;;;;2.02;100.00;102645.59;5203011;28;20491;-82
2022/01/12 03:49:35;;;;;;;21.10;11.18;;;;;;;1.89;100.00;102638.34;5204047;28;20018;-82
2022/01/12 03:52:06;;;;;;;21.65;10.93;;;;;;;1.76;100.00;102640.44;5204492;28;20501;-82
2022/01/12 03:54:36;;;;;;;23.88;11.15;;;;;;;1.74;100.00;102642.09;5202900;28;20028;-83
2022/01/12 03:57:06;;;;;;;23.40;10.60;;;;;;;1.80;100.00;102632.00;5202412;28;20037;-82
2022/01/12 03:59:37;;;;;;;24.92;11.18;;;;;;;1.68;100.00;102636.75;5199357;28;20030;-81
2022/01/12 04:02:07;;;;;;;24.15;12.00;;;;;;;1.72;100.00;102637.75;5200790;28;20057;-82
2022/01/12 04:04:53;;;;;;;25.67;11.55;;;;;;;1.76;100.00;102637.88;5200816;28;20069;-82
2022/01/12 04:10:12;;;;;;;26.17;11.82;;;;;;;1.91;100.00;102648.69;5197788;28;20565;-82
2022/01/12 04:12:43;;;;;;;25.17;11.82;;;;;;;2.01;100.00;102648.16;5191516;28;20033;-82
2022/01/12 04:15:13;;;;;;;24.50;11.80;;;;;;;1.98;100.00;102653.22;5197383;28;20112;-82
2022/01/12 04:17:44;;;;;;;25.83;11.80;;;;;;;2.00;100.00;102656.72;5202389;28;20438;-82
2022/01/12 04:20:14;;;;;;;23.70;11.18;;;;;;;2.14;100.00;102650.31;5202621;28;20021;-82
2022/01/12 04:25:33;;;;;;;22.98;10.48;;;;;;;2.26;100.00;102650.66;5203922;28;20199;-82
2022/01/12 04:28:04;;;;;;;24.75;11.07;;;;;;;2.20;100.00;102653.94;5202908;28;20021;-82
2022/01/12 04:30:34;;;;;;;19.77;9.93;;;;;;;2.23;100.00;102645.41;5202312;28;20025;-82
2022/01/12 04:33:04;;;;;;;21.77;10.43;;;;;;;2.26;100.00;102641.25;5203645;28;20029;-82
2022/01/12 04:35:39;;;;;;;24.27;10.20;;;;;;;2.31;100.00;102647.41;5203275;28;20036;-82
2022/01/12 04:38:10;;;;;;;20.73;10.23;;;;;;;2.19;100.00;102647.00;5187636;28;20032;-82
2022/01/12 04:40:41;;;;;;;20.63;9.10;;;;;;;2.24;100.00;102652.31;5200012;28;20141;-82
2022/01/12 04:43:12;;;;;;;22.77;9.63;;;;;;;2.24;100.00;102652.31;5191583;28;20499;-82
2022/01/12 04:50:57;;;;;;;18.25;8.13;;;;;;;2.47;100.00;102651.34;5204427;28;20029;-82
2022/01/12 04:53:27;;;;;;;17.67;7.53;;;;;;;2.48;100.00;102650.50;5202767;28;20083;-82
2022/01/12 04:55:59;;;;;;;17.35;7.38;;;;;;;2.54;100.00;102642.94;5201914;28;20033;-82
2022/01/12 04:58:30;;;;;;;15.43;7.13;;;;;;;2.57;100.00;102648.19;5201232;28;20499;-82
2022/01/12 05:01:08;;;;;;;14.23;6.70;;;;;;;2.63;100.00;102648.38;5202041;28;20032;-82
2022/01/12 05:06:44;;;;;;;11.57;6.40;;;;;;;2.70;100.00;102634.81;5192131;28;20040;-82
2022/01/12 05:15:13;;;;;;;11.88;6.10;;;;;;;2.80;100.00;102641.97;5197800;28;20040;-82
2022/01/12 05:17:43;;;;;;;10.70;5.20;;;;;;;2.85;100.00;102651.63;5199536;28;20033;-82
2022/01/12 05:20:13;;;;;;;12.63;5.97;;;;;;;2.83;100.00;102663.63;5202182;28;20025;-82
2022/01/12 05:22:44;;;;;;;11.50;5.43;;;;;;;2.91;100.00;102669.88;5202191;28;20079;-82
2022/01/12 05:25:17;;;;;;;12.70;5.80;;;;;;;2.94;100.00;102674.25;5202375;28;20395;-82
2022/01/12 05:27:47;;;;;;;11.95;5.47;;;;;;;2.97;100.00;102672.63;5203262;28;20396;-82
2022/01/12 05:30:18;;;;;;;34.67;11.55;;;;;;;2.96;100.00;102672.56;5202417;28;20092;-82
2022/01/12 05:32:48;;;;;;;13.80;6.28;;;;;;;2.94;100.00;102675.13;5200356;28;20150;-82
2022/01/12 05:35:20;;;;;;;14.38;6.72;;;;;;;3.00;100.00;102684.78;5202424;28;20061;-82
2022/01/12 05:37:50;;;;;;;10.32;5.95;;;;;;;3.00;100.00;102677.03;5187444;28;20022;-82
2022/01/12 05:40:21;;;;;;;14.90;5.60;;;;;;;3.04;100.00;102684.03;5184672;28;20392;-82
2022/01/12 05:42:52;;;;;;;12.35;5.78;;;;;;;3.07;100.00;102689.25;5189585;28;20376;-82
2022/01/12 05:45:23;;;;;;;12.73;5.63;;;;;;;3.08;100.00;102683.25;5192441;28;20276;-83
2022/01/12 05:50:26;;;;;;;13.68;5.72;;;;;;;3.12;100.00;102695.44;5198433;28;20029;-82
2022/01/12 05:52:56;;;;;;;11.70;5.75;;;;;;;3.18;100.00;102693.03;5202088;28;20037;-82
2022/01/12 05:55:26;;;;;;;10.57;5.70;;;;;;;3.13;100.00;102692.91;5198709;28;20025;-82
2022/01/12 05:57:57;;;;;;;11.32;5.57;;;;;;;3.08;100.00;102696.19;5203855;28;20037;-82
2022/01/12 06:00:28;;;;;;;12.20;5.80;;;;;;;3.20;100.00;102691.38;5204946;28;20029;-81
2022/01/12 06:02:59;;;;;;;11.38;5.75;;;;;;;3.20;100.00;102692.22;5194266;28;20026;-82
2022/01/12 06:05:29;;;;;;;11.23;5.70;;;;;;;3.23;100.00;102686.28;5195624;28;20120;-81
2022/01/12 06:07:59;;;;;;;11.70;5.45;;;;;;;3.26;100.00;102687.25;5185340;28;20052;-82
2022/01/12 06:10:30;;;;;;;12.25;5.70;;;;;;;3.25;100.00;102682.03;5203198;28;20243;-82
2022/01/12 06:13:00;;;;;;;13.18;5.20;;;;;;;3.16;100.00;102674.03;5188660;28;20109;-82
2022/01/12 06:15:30;;;;;;;10.88;5.47;;;;;;;3.20;100.00;102686.22;5197195;28;20044;-82
2022/01/12 06:18:01;;;;;;;9.90;5.10;;;;;;;3.16;100.00;102680.06;5198807;28;20117;-82
2022/01/12 06:20:31;;;;;;;12.85;5.57;;;;;;;3.12;100.00;102685.09;5192986;28;20101;-82
2022/01/12 06:23:02;;;;;;;13.90;5.38;;;;;;;3.20;100.00;102678.44;5194905;28;20041;-82
2022/01/12 06:25:32;;;;;;;9.82;5.10;;;;;;;3.23;100.00;102676.81;5191776;28;20041;-83
2022/01/12 06:28:40;;;;;;;11.90;5.00;;;;;;;3.38;100.00;102676.38;5193060;28;20108;-81
2022/01/12 06:31:13;;;;;;;11.25;6.07;;;;;;;3.19;100.00;102690.47;5197263;28;20065;-82
2022/01/12 06:33:46;;;;;;;10.75;5.13;;;;;;;3.24;100.00;102695.78;5197390;28;20032;-81
2022/01/12 06:36:18;;;;;;;11.45;4.90;;;;;;;3.23;100.00;102699.19;5198695;28;20416;-81
2022/01/12 06:38:49;;;;;;;12.23;6.13;;;;;;;3.16;100.00;102698.16;5188825;28;20036;-82
2022/01/12 06:41:23;;;;;;;13.00;5.75;;;;;;;3.18;100.00;102696.47;5194781;28;20109;-81
2022/01/12 06:43:53;;;;;;;13.77;5.80;;;;;;;3.22;100.00;102705.19;5192322;28;20113;-81
2022/01/12 06:46:28;;;;;;;16.55;6.60;;;;;;;3.21;100.00;102712.06;5205228;28;20535;-81
2022/01/12 06:49:02;;;;;;;13.57;5.43;;;;;;;3.24;100.00;102701.84;5195500;28;20036;-81
2022/01/12 06:51:33;;;;;;;12.43;6.38;;;;;;;3.17;100.00;102705.06;5201862;28;20033;-82
2022/01/12 06:54:03;;;;;;;12.57;6.15;;;;;;;3.19;100.00;102705.13;5195466;28;20383;-81
2022/01/12 06:56:34;;;;;;;11.60;6.07;;;;;;;3.18;100.00;102709.41;5204494;28;20438;-81
2022/01/12 06:59:09;;;;;;;14.68;5.90;;;;;;;3.22;100.00;102710.38;5205031;28;20149;-81
2022/01/12 07:01:40;;;;;;;9.93;5.60;;;;;;;3.26;100.00;102691.53;5201259;28;20072;-82
2022/01/12 07:04:11;;;;;;;10.15;5.68;;;;;;;3.25;100.00;102695.84;5201428;28;20025;-81
2022/01/12 07:06:41;;;;;;;14.00;5.70;;;;;;;3.22;100.00;102702.63;5200054;28;20057;-81
2022/01/12 07:09:12;;;;;;;12.75;5.90;;;;;;;3.24;100.00;102703.53;5195924;28;20096;-81
2022/01/12 07:11:43;;;;;;;12.00;5.93;;;;;;;3.21;100.00;102713.78;5195590;28;20025;-81
2022/01/12 07:14:13;;;;;;;12.48;6.10;;;;;;;3.41;100.00;102713.53;5191232;28;20030;-81
2022/01/12 07:16:43;;;;;;;12.45;5.78;;;;;;;3.49;100.00;102724.94;5201042;28;20087;-81
2022/01/12 07:19:14;;;;;;;11.52;5.35;;;;;;;3.73;100.00;102722.97;5201198;28;20040;-81
2022/01/12 07:21:44;;;;;;;11.85;5.07;;;;;;;3.72;100.00;102727.28;5203697;28;20029;-82
2022/01/12 07:24:14;;;;;;;10.23;5.57;;;;;;;3.69;100.00;102727.22;5189949;28;20026;-81
2022/01/12 07:26:46;;;;;;;12.27;5.70;;;;;;;3.68;100.00;102735.81;5205388;28;20092;-81
2022/01/12 07:29:16;;;;;;;11.63;5.15;;;;;;;3.82;100.00;102736.16;5204932;28;20432;-81
2022/01/12 07:31:48;;;;;;;13.60;5.75;;;;;;;3.73;100.00;102733.31;5204570;28;20044;-82
2022/01/12 07:34:18;;;;;;;10.18;5.22;;;;;;;3.71;100.00;102738.47;5204210;28;20053;-82
2022/01/12 07:36:48;;;;;;;13.68;5.78;;;;;;;3.67;100.00;102739.25;5198137;28;20064;-81
2022/01/12 07:39:19;;;;;;;15.55;6.40;;;;;;;3.52;100.00;102745.69;5193791;28;20022;-82
2022/01/12 07:41:49;;;;;;;13.80;7.07;;;;;;;3.51;100.00;102746.50;5197812;28;20041;-81
2022/01/12 07:44:21;;;;;;;14.30;6.90;;;;;;;3.55;100.00;102755.25;5195502;28;20049;-80
2022/01/12 07:46:51;;;;;;;11.55;6.28;;;;;;;3.58;100.00;102753.63;5199583;28;20052;-81
2022/01/12 07:49:21;;;;;;;12.35;6.13;;;;;;;3.55;100.00;102750.94;5190301;28;20022;-81
2022/01/12 07:51:51;;;;;;;11.23;6.20;;;;;;;3.56;100.00;102760.44;5202821;28;20061;-81
2022/01/12 07:54:22;;;;;;;9.40;5.40;;;;;;;3.68;100.00;102756.50;5190000;28;20189;-82
2022/01/12 07:56:52;;;;;;;12.57;5.93;;;;;;;3.66;100.00;102758.16;5191476;28;20026;-82
2022/01/12 07:59:22;;;;;;;8.98;5.13;;;;;;;3.58;100.00;102751.03;5199712;28;20029;-82
2022/01/12 08:01:53;;;;;;;12.85;5.65;;;;;;;3.51;100.00;102756.84;5202992;28;20029;-81
2022/01/12 08:04:23;;;;;;;12.65;6.00;;;;;;;3.45;100.00;102761.88;5203686;28;20048;-81
2022/01/12 08:06:53;;;;;;;12.43;6.00;;;;;;;3.57;100.00;102764.78;5192844;28;20025;-82
2022/01/12 08:09:24;;;;;;;12.15;5.95;;;;;;;3.67;100.00;102762.50;5194046;28;20490;-81
2022/01/12 08:11:54;;;;;;;11.57;5.93;;;;;;;3.77;100.00;102767.06;5190544;28;20044;-81
2022/01/12 08:14:24;;;;;;;11.70;5.43;;;;;;;3.87;100.00;102773.38;5192984;28;20025;-80
2022/01/12 08:16:55;;;;;;;12.45;5.80;;;;;;;3.81;100.00;102779.25;5201431;28;20029;-81
2022/01/12 08:19:26;;;;;;;12.27;5.85;;;;;;;3.88;100.00;102777.69;5200855;28;20068;-81
2022/01/12 08:21:56;;;;;;;16.15;5.85;;;;;;;3.82;100.00;102781.00;5200623;28;20033;-81
2022/01/12 08:24:27;;;;;;;10.23;5.57;;;;;;;3.85;100.00;102791.44;5204500;28;20030;-82
2022/01/12 08:26:57;;;;;;;10.95;5.07;;;;;;;3.82;100.00;102788.75;5209282;28;20392;-81
2022/01/12 08:29:29;;;;;;;13.05;5.53;;;;;;;3.93;100.00;102787.34;5204931;28;20036;-81
2022/01/12 08:31:59;;;;;;;11.63;5.47;;;;;;;3.96;100.00;102792.59;5204763;28;20033;-82
2022/01/12 08:34:30;;;;;;;15.23;6.00;;;;;;;4.09;100.00;102799.84;5205210;28;20442;-82
2022/01/12 08:37:00;;;;;;;11.35;5.72;;;;;;;4.03;100.00;102803.97;5197758;28;20411;-82
2022/01/12 08:39:31;;;;;;;13.70;6.28;;;;;;;3.94;100.00;102803.75;5196248;28;20025;-82
2022/01/12 08:42:01;;;;;;;12.32;5.78;;;;;;;3.93;100.00;102802.84;5196689;28;20091;-82
2022/01/12 08:44:33;;;;;;;14.25;5.70;;;;;;;4.05;100.00;102805.78;5197759;28;20036;-82
2022/01/12 08:47:05;;;;;;;14.30;5.85;;;;;;;4.16;100.00;102804.31;5206587;28;20044;-82
2022/01/12 08:49:35;;;;;;;12.50;6.18;;;;;;;4.26;100.00;102811.50;5202952;28;20075;-82
2022/01/12 08:52:06;;;;;;;13.52;6.13;;;;;;;4.18;100.00;102817.31;5204150;28;20120;-82
2022/01/12 08:54:36;;;;;;;10.90;5.78;;;;;;;4.23;100.00;102818.31;5204899;28;20036;-82
2022/01/12 08:57:07;;;;;;;13.45;6.50;;;;;;;4.25;100.00;102809.75;5205413;28;20112;-82
2022/01/12 08:59:37;;;;;;;13.18;6.30;;;;;;;4.17;100.00;102808.69;5204143;28;20067;-82
2022/01/12 09:02:08;;;;;;;14.35;6.55;;;;;;;4.34;100.00;102812.59;5202627;28;20535;-83
2022/01/12 09:04:39;;;;;;;13.07;6.45;;;;;;;4.27;100.00;102812.41;5203052;28;20080;-81
2022/01/12 09:07:10;;;;;;;15.20;7.13;;;;;;;4.14;100.00;102805.16;5194590;28;20328;-82
2022/01/12 09:09:40;;;;;;;13.25;6.95;;;;;;;4.30;100.00;102809.88;5196414;28;20029;-83
2022/01/12 09:12:11;;;;;;;12.60;6.95;;;;;;;4.16;100.00;102808.63;5194243;28;20075;-83
2022/01/12 09:14:41;;;;;;;15.63;7.25;;;;;;;4.24;100.00;102810.59;5195343;28;20339;-82
2022/01/12 09:17:18;;;;;;;14.35;7.05;;;;;;;4.12;100.00;102812.00;5204137;28;20021;-81
2022/01/12 09:19:50;;;;;;;14.60;7.68;;;;;;;4.03;100.00;102811.72;5203431;28;20060;-81
2022/01/12 09:22:20;;;;;;;17.30;7.93;;;;;;;3.99;100.00;102815.94;5203639;28;20108;-81
2022/01/12 09:24:52;;;;;;;15.32;8.68;;;;;;;4.08;100.00;102813.63;5204886;28;20117;-82
2022/01/12 09:27:22;;;;;;;15.40;8.13;;;;;;;4.06;100.00;102822.16;5205639;28;20072;-82
2022/01/12 09:29:52;;;;;;;14.77;8.20;;;;;;;4.20;100.00;102826.88;5207100;28;20487;-82
2022/01/12 09:32:23;;;;;;;21.17;8.73;;;;;;;4.31;100.00;102829.75;5207187;28;20029;-82
2022/01/12 09:34:53;;;;;;;14.70;8.02;;;;;;;4.42;100.00;102826.59;5207988;28;20048;-82
2022/01/12 09:37:23;;;;;;;21.10;9.95;;;;;;;4.31;100.00;102830.59;5196969;28;20105;-82
2022/01/12 09:39:54;;;;;;;19.15;9.25;;;;;;;4.28;100.00;102835.72;5199388;28;20378;-82
2022/01/12 09:42:24;;;;;;;25.02;11.55;;;;;;;4.32;100.00;102836.66;5199242;28;20021;-82
2022/01/12 09:44:54;;;;;;;21.27;10.35;;;;;;;4.22;100.00;102832.97;5201506;28;20053;-82
2022/01/12 09:47:25;;;;;;;27.65;12.07;;;;;;;4.37;100.00;102835.97;5200616;28;20022;-81
2022/01/12 09:49:55;;;;;;;26.77;12.30;;;;;;;4.19;100.00;102844.94;5197714;28;20033;-82
2022/01/12 09:52:25;;;;;;;22.80;11.50;;;;;;;4.35;100.00;102831.56;5198438;28;20124;-81
2022/01/12 09:54:56;;;;;;;19.38;10.27;;;;;;;4.22;100.00;102840.72;5201046;28;20033;-82
2022/01/12 09:57:26;;;;;;;20.23;11.07;;;;;;;4.24;100.00;102831.28;5206787;28;20044;-82
2022/01/12 09:59:56;;;;;;;23.80;11.60;;;;;;;4.30;100.00;102834.03;5190174;28;20091;-82
2022/01/12 10:02:27;;;;;;;24.67;11.73;;;;;;;4.40;100.00;102830.84;5188013;28;20163;-82
2022/01/12 10:05:06;;;;;;;25.38;12.13;;;;;;;4.41;100.00;102835.19;5190141;28;20026;-82
2022/01/12 10:07:37;;;;;;;27.15;12.50;;;;;;;4.34;100.00;102829.81;5187783;28;20423;-82
2022/01/12 10:10:10;;;;;;;27.55;13.23;;;;;;;4.41;100.00;102832.59;5190542;28;20107;-82
2022/01/12 10:12:52;;;;;;;27.85;12.40;;;;;;;4.47;100.00;102837.94;5186567;28;20025;-82
2022/01/12 10:15:24;;;;;;;23.60;12.10;;;;;;;4.44;100.00;102844.75;5199782;28;20021;-82
2022/01/12 10:18:01;;;;;;;27.30;13.05;;;;;;;4.39;100.00;102847.22;5206200;28;20035;-82
2022/01/12 10:20:43;;;;;;;27.20;12.82;;;;;;;4.41;100.00;102840.38;5205993;28;20032;-81
2022/01/12 10:23:15;;;;;;;24.60;12.90;;;;;;;4.41;100.00;102835.19;5195511;28;20021;-81
2022/01/12 10:25:47;;;;;;;33.42;14.57;;;;;;;4.48;100.00;102831.91;5203683;28;20025;-82
2022/01/12 10:28:20;;;;;;;30.08;14.38;;;;;;;4.55;100.00;102820.88;5202252;28;20036;-82
2022/01/12 10:31:00;;;;;;;28.13;14.48;;;;;;;4.44;100.00;102821.47;5204596;28;20033;-82
2022/01/12 10:33:33;;;;;;;29.25;14.27;;;;;;;4.57;100.00;102824.38;5198263;28;20081;-82
2022/01/12 10:36:08;;;;;;;28.08;14.18;;;;;;;4.49;100.00;102831.06;5190442;28;20802;-82
2022/01/12 10:38:38;;;;;;;35.80;16.20;;;;;;;4.33;100.00;102831.50;5188557;28;20034;-82
2022/01/12 10:41:09;;;;;;;31.77;15.07;;;;;;;4.41;100.00;102837.78;5207838;28;20573;-82
2022/01/12 10:43:44;;;;;;;32.75;14.98;;;;;;;4.28;100.00;102835.72;5208289;28;20033;-82
2022/01/12 10:46:15;;;;;;;;;;;;;;;4.44;100.00;102842.16;5208280;28;20021;-82
2022/01/12 10:48:49;;;;;;;31.75;15.25;;;;;;;4.41;100.00;102837.78;5206595;28;20496;-82
2022/01/12 10:51:27;;;;;;;33.75;14.75;;;;;;;4.48;100.00;102831.03;5208340;28;20029;-82
2022/01/12 10:54:04;;;;;;;35.05;16.48;;;;;;;4.48;100.00;102829.31;5206960;28;20025;-83
2022/01/12 10:56:34;;;;;;;32.40;16.58;;;;;;;4.50;100.00;102821.59;5207147;28;20057;-82
2022/01/12 10:59:04;;;;;;;35.28;16.90;;;;;;;4.51;100.00;102829.41;5208045;28;20750;-82
2022/01/12 11:01:35;;;;;;;32.33;16.27;;;;;;;4.55;100.00;102820.00;5206907;28;20018;-82
2022/01/12 11:04:05;;;;;;;34.97;16.95;;;;;;;4.57;100.00;102826.97;5194584;28;20462;-82
2022/01/12 11:06:36;;;;;;;39.58;18.35;;;;;;;4.49;100.00;102830.22;5190524;28;20091;-82
2022/01/12 11:09:06;;;;;;;37.80;20.25;;;;;;;4.45;100.00;102823.22;5188158;28;20385;-82
2022/01/12 11:11:37;;;;;;;33.33;17.60;;;;;;;4.55;100.00;102814.81;5206677;28;20025;-82
2022/01/12 11:14:07;;;;;;;32.85;17.25;;;;;;;4.49;100.00;102825.88;5206440;28;20026;-83
2022/01/12 11:16:38;;;;;;;36.40;17.13;;;;;;;4.45;100.00;102829.25;5208304;28;20555;-82
2022/01/12 11:19:09;;;;;;;30.23;17.50;;;;;;;4.64;100.00;102826.28;5208123;28;20022;-82
2022/01/12 11:21:45;;;;;;;32.63;18.35;;;;;;;4.56;100.00;102822.63;5191814;28;20521;-83
2022/01/12 11:24:18;;;;;;;34.00;17.65;;;;;;;4.70;100.00;102823.84;5206381;28;20088;-82
2022/01/12 11:26:51;;;;;;;35.22;17.35;;;;;;;4.73;100.00;102831.69;5203261;28;20026;-81
2022/01/12 11:29:32;;;;;;;35.83;18.27;;;;;;;4.71;100.00;102832.47;5201208;28;20075;-81
2022/01/12 11:32:13;;;;;;;36.03;18.58;;;;;;;4.65;100.00;102837.53;5200824;28;20502;-82
2022/01/12 11:34:43;;;;;;;36.88;18.52;;;;;;;4.59;100.00;102837.34;5187448;28;20029;-83
2022/01/12 11:37:16;;;;;;;39.17;18.90;;;;;;;4.52;100.00;102843.22;5188449;28;20029;-82
2022/01/12 11:39:47;;;;;;;39.25;19.42;;;;;;;4.57;100.00;102842.50;5198133;28;20037;-82
2022/01/12 11:42:20;;;;;;;44.97;19.60;;;;;;;4.42;100.00;102841.22;5207300;28;20032;-82
2022/01/12 11:44:50;;;;;;;36.92;19.05;;;;;;;4.48;100.00;102834.50;5206210;28;20029;-82
2022/01/12 11:47:26;;;;;;;38.60;20.40;;;;;;;4.55;100.00;102833.81;5198623;28;20103;-82
2022/01/12 11:49:56;;;;;;;44.80;21.13;;;;;;;4.51;100.00;102842.38;5193928;28;20029;-82
2022/01/12 11:52:30;;;;;;;41.88;20.67;;;;;;;4.55;100.00;102849.38;5206413;28;20026;-82
2022/01/12 11:55:13;;;;;;;42.78;20.40;;;;;;;4.47;100.00;102848.28;5207470;28;20518;-82
2022/01/12 11:57:50;;;;;;;44.30;20.58;;;;;;;4.47;100.00;102839.66;5183418;28;20025;-82
2022/01/12 12:00:23;;;;;;;44.15;21.90;;;;;;;4.56;100.00;102845.94;5208232;28;20026;-82
2022/01/12 12:02:53;;;;;;;46.03;22.00;;;;;;;4.58;100.00;102838.19;5202106;28;20065;-82
2022/01/12 12:05:30;;;;;;;42.15;21.55;;;;;;;4.56;100.00;102850.22;5184607;28;20060;-82
2022/01/12 12:08:04;;;;;;;48.03;22.75;;;;;;;4.54;100.00;102844.13;5189855;28;20079;-82
2022/01/12 12:10:37;;;;;;;41.50;21.58;;;;;;;4.60;100.00;102828.78;5201477;28;20060;-82
2022/01/12 12:13:11;;;;;;;43.05;21.38;;;;;;;4.71;100.00;102833.38;5205945;28;20028;-82
2022/01/12 12:15:42;;;;;;;45.75;21.80;;;;;;;4.65;100.00;102838.38;5196672;28;20025;-81
2022/01/12 12:18:13;;;;;;;46.58;22.17;;;;;;;4.66;100.00;102845.31;5205546;28;20537;-83
2022/01/12 12:20:43;;;;;;;49.92;22.70;;;;;;;4.65;100.00;102847.88;5205667;28;20037;-82
2022/01/12 12:23:14;;;;;;;51.05;24.23;;;;;;;4.65;100.00;102835.78;5207279;28;20630;-82
2022/01/12 12:25:44;;;;;;;45.20;22.77;;;;;;;4.73;100.00;102834.28;5204876;28;20029;-82
2022/01/12 12:28:14;;;;;;;48.65;24.05;;;;;;;4.81;100.00;102827.56;5205914;28;20026;-82
2022/01/12 12:30:45;;;;;;;44.28;22.08;;;;;;;4.84;100.00;102830.22;5201328;28;20041;-82
2022/01/12 12:33:16;;;;;;;58.40;26.50;;;;;;;4.84;100.00;102824.16;5195694;28;20030;-82
2022/01/12 12:35:46;;;;;;;63.63;27.95;;;;;;;4.95;100.00;102813.22;5190556;28;20099;-82
2022/01/12 12:38:19;;;;;;;49.05;24.02;;;;;;;4.98;100.00;102808.09;5187068;28;20028;-82
2022/01/12 12:40:57;;;;;;;50.63;23.83;;;;;;;4.93;100.00;102809.72;5203263;28;20029;-82
2022/01/12 12:43:34;;;;;;;50.20;24.63;;;;;;;4.95;100.00;102813.22;5207046;28;20022;-82
2022/01/12 12:46:11;;;;;;;47.83;23.50;;;;;;;4.88;100.00;102800.97;5202387;28;20064;-83
2022/01/12 12:48:43;;;;;;;46.58;22.63;;;;;;;5.11;100.00;102799.75;5190021;28;20029;-82
2022/01/12 12:51:15;;;;;;;43.10;22.30;;;;;;;5.08;100.00;102801.41;5187946;28;20021;-83
2022/01/12 12:53:48;;;;;;;46.05;23.38;;;;;;;5.02;100.00;102824.59;5197079;28;20030;-82
2022/01/12 12:56:21;;;;;;;55.42;25.73;;;;;;;5.04;100.00;102833.28;5196752;28;20021;-82
2022/01/12 12:58:52;;;;;;;54.63;26.52;;;;;;;5.04;100.00;102833.28;5208857;28;20029;-82